sensor_id;sensor_type;location;lat;lon;timestamp;temperature;humidity
25640;DHT22;13497;48.322;16.204;2023-04-25T00:01:55;10.10;99.90
25640;DHT22;13497;48.322;16.204;2023-04-25T00:04:22;10.00;99.90
25640;DHT22;13497;48.322;16.204;2023-04-25T00:06:47;10.10;99.90
25640;DHT22;13497;48.322;16.204;2023-04-25T00:09:13;10.10;99.90
25640;DHT22;13497;48.322;16.204;2023-04-25T00:11:39;10.10;99.90
25640;DHT22;13497;48.322;16.204;2023-04-25T00:14:05;10.10;99.90
25640;DHT22;13497;48.322;16.204;2023-04-25T00:16:31;10.10;99.90
25640;DHT22;13497;48.322;16.204;2023-04-25T00:18:59;10.10;99.90
25640;DHT22;13497;48.322;16.204;2023-04-25T00:21:24;10.10;99.90
25640;DHT22;13497;48.322;16.204;2023-04-25T00:23:52;10.10;99.90
25640;DHT22;13497;48.322;16.204;2023-04-25T00:26:18;10.10;99.90
25640;DHT22;13497;48.322;16.204;2023-04-25T00:28:43;10.10;99.90
25640;DHT22;13497;48.322;16.204;2023-04-25T00:31:09;10.20;99.90
25640;DHT22;13497;48.322;16.204;2023-04-25T00:33:34;10.10;99.90
25640;DHT22;13497;48.322;16.204;2023-04-25T00:36:00;10.20;99.90
25640;DHT22;13497;48.322;16.204;2023-04-25T00:38:26;10.10;99.90
25640;DHT22;13497;48.322;16.204;2023-04-25T00:40:51;10.10;99.90
25640;DHT22;13497;48.322;16.204;2023-04-25T00:43:18;10.20;99.90
25640;DHT22;13497;48.322;16.204;2023-04-25T00:45:43;10.30;99.90
25640;DHT22;13497;48.322;16.204;2023-04-25T00:48:12;10.30;99.90
25640;DHT22;13497;48.322;16.204;2023-04-25T00:50:39;10.20;99.90
25640;DHT22;13497;48.322;16.204;2023-04-25T00:53:04;10.20;99.90
25640;DHT22;13497;48.322;16.204;2023-04-25T00:55:30;10.20;99.90
25640;DHT22;13497;48.322;16.204;2023-04-25T00:57:57;10.20;99.90
25640;DHT22;13497;48.322;16.204;2023-04-25T01:00:22;10.20;99.90
25640;DHT22;13497;48.322;16.204;2023-04-25T01:02:48;10.20;99.90
25640;DHT22;13497;48.322;16.204;2023-04-25T01:05:13;10.20;99.90
25640;DHT22;13497;48.322;16.204;2023-04-25T01:07:39;10.10;99.90
25640;DHT22;13497;48.322;16.204;2023-04-25T01:10:05;10.10;99.90
25640;DHT22;13497;48.322;16.204;2023-04-25T01:12:31;10.10;99.90
25640;DHT22;13497;48.322;16.204;2023-04-25T01:14:56;10.10;99.90
25640;DHT22;13497;48.322;16.204;2023-04-25T01:17:22;10.10;99.90
25640;DHT22;13497;48.322;16.204;2023-04-25T01:19:48;10.00;99.90
25640;DHT22;13497;48.322;16.204;2023-04-25T01:22:14;10.00;99.90
25640;DHT22;13497;48.322;16.204;2023-04-25T01:24:40;10.10;99.90
25640;DHT22;13497;48.322;16.204;2023-04-25T01:27:05;10.10;99.90
25640;DHT22;13497;48.322;16.204;2023-04-25T01:29:31;10.10;99.90
25640;DHT22;13497;48.322;16.204;2023-04-25T01:31:57;10.10;99.90
25640;DHT22;13497;48.322;16.204;2023-04-25T01:34:23;10.10;99.90
25640;DHT22;13497;48.322;16.204;2023-04-25T01:36:49;10.00;99.90
25640;DHT22;13497;48.322;16.204;2023-04-25T01:39:16;10.00;99.90
25640;DHT22;13497;48.322;16.204;2023-04-25T01:41:42;10.00;99.90
25640;DHT22;13497;48.322;16.204;2023-04-25T01:44:07;10.00;99.90
25640;DHT22;13497;48.322;16.204;2023-04-25T01:46:33;10.00;99.90
25640;DHT22;13497;48.322;16.204;2023-04-25T01:48:59;10.00;99.90
25640;DHT22;13497;48.322;16.204;2023-04-25T01:51:24;10.00;99.90
25640;DHT22;13497;48.322;16.204;2023-04-25T01:53:50;10.00;99.90
25640;DHT22;13497;48.322;16.204;2023-04-25T01:56:15;9.90;99.90
25640;DHT22;13497;48.322;16.204;2023-04-25T01:58:42;9.90;99.90
25640;DHT22;13497;48.322;16.204;2023-04-25T02:01:08;9.90;99.90
25640;DHT22;13497;48.322;16.204;2023-04-25T02:03:34;9.90;99.90
25640;DHT22;13497;48.322;16.204;2023-04-25T02:05:59;9.90;99.90
25640;DHT22;13497;48.322;16.204;2023-04-25T02:08:25;9.80;99.90
25640;DHT22;13497;48.322;16.204;2023-04-25T02:10:52;9.80;99.90
25640;DHT22;13497;48.322;16.204;2023-04-25T02:13:17;9.80;99.90
25640;DHT22;13497;48.322;16.204;2023-04-25T02:15:43;9.80;99.90
25640;DHT22;13497;48.322;16.204;2023-04-25T02:18:08;9.80;99.90
25640;DHT22;13497;48.322;16.204;2023-04-25T02:20:35;9.80;99.90
25640;DHT22;13497;48.322;16.204;2023-04-25T02:23:01;9.70;99.90
25640;DHT22;13497;48.322;16.204;2023-04-25T02:25:27;9.70;99.90
25640;DHT22;13497;48.322;16.204;2023-04-25T02:27:52;9.70;99.90
25640;DHT22;13497;48.322;16.204;2023-04-25T02:30:18;9.60;99.90
25640;DHT22;13497;48.322;16.204;2023-04-25T02:32:43;9.70;99.90
25640;DHT22;13497;48.322;16.204;2023-04-25T02:35:09;9.60;99.90
25640;DHT22;13497;48.322;16.204;2023-04-25T02:37:36;9.60;99.90
25640;DHT22;13497;48.322;16.204;2023-04-25T02:40:02;9.60;99.90
25640;DHT22;13497;48.322;16.204;2023-04-25T02:42:29;9.60;99.90
25640;DHT22;13497;48.322;16.204;2023-04-25T02:44:54;9.50;99.90
25640;DHT22;13497;48.322;16.204;2023-04-25T02:47:20;9.50;99.90
25640;DHT22;13497;48.322;16.204;2023-04-25T02:49:45;9.50;99.90
25640;DHT22;13497;48.322;16.204;2023-04-25T02:52:11;9.50;99.90
25640;DHT22;13497;48.322;16.204;2023-04-25T02:54:37;9.50;99.90
25640;DHT22;13497;48.322;16.204;2023-04-25T02:57:03;9.40;99.90
25640;DHT22;13497;48.322;16.204;2023-04-25T02:59:28;9.40;99.90
25640;DHT22;13497;48.322;16.204;2023-04-25T03:01:54;9.40;99.90
25640;DHT22;13497;48.322;16.204;2023-04-25T03:04:20;9.30;99.90
25640;DHT22;13497;48.322;16.204;2023-04-25T03:06:46;9.30;99.90
25640;DHT22;13497;48.322;16.204;2023-04-25T03:09:12;9.30;99.90
25640;DHT22;13497;48.322;16.204;2023-04-25T03:11:38;9.30;99.90
25640;DHT22;13497;48.322;16.204;2023-04-25T03:14:04;9.20;99.90
25640;DHT22;13497;48.322;16.204;2023-04-25T03:16:29;9.20;99.90
25640;DHT22;13497;48.322;16.204;2023-04-25T03:18:56;9.20;99.90
25640;DHT22;13497;48.322;16.204;2023-04-25T03:21:21;9.20;99.90
25640;DHT22;13497;48.322;16.204;2023-04-25T03:23:47;9.20;99.90
25640;DHT22;13497;48.322;16.204;2023-04-25T03:26:13;9.10;99.90
25640;DHT22;13497;48.322;16.204;2023-04-25T03:28:38;9.10;99.90
25640;DHT22;13497;48.322;16.204;2023-04-25T03:31:05;9.10;99.90
25640;DHT22;13497;48.322;16.204;2023-04-25T03:33:31;9.10;99.90
25640;DHT22;13497;48.322;16.204;2023-04-25T03:35:56;9.00;99.90
25640;DHT22;13497;48.322;16.204;2023-04-25T03:38:22;8.90;99.90
25640;DHT22;13497;48.322;16.204;2023-04-25T03:40:47;8.90;99.90
25640;DHT22;13497;48.322;16.204;2023-04-25T03:43:13;8.90;99.90
25640;DHT22;13497;48.322;16.204;2023-04-25T03:45:38;8.80;99.90
25640;DHT22;13497;48.322;16.204;2023-04-25T03:48:04;8.80;99.90
25640;DHT22;13497;48.322;16.204;2023-04-25T03:50:29;8.80;99.90
25640;DHT22;13497;48.322;16.204;2023-04-25T03:52:55;8.80;99.90
25640;DHT22;13497;48.322;16.204;2023-04-25T03:55:20;8.70;99.90
25640;DHT22;13497;48.322;16.204;2023-04-25T03:57:46;8.70;99.90
25640;DHT22;13497;48.322;16.204;2023-04-25T04:00:11;8.70;99.90
25640;DHT22;13497;48.322;16.204;2023-04-25T04:02:37;8.60;99.90
25640;DHT22;13497;48.322;16.204;2023-04-25T04:05:04;8.60;99.90
25640;DHT22;13497;48.322;16.204;2023-04-25T04:07:30;8.60;99.90
25640;DHT22;13497;48.322;16.204;2023-04-25T04:09:58;8.60;99.90
25640;DHT22;13497;48.322;16.204;2023-04-25T04:12:23;8.50;99.90
25640;DHT22;13497;48.322;16.204;2023-04-25T04:14:49;8.50;99.90
25640;DHT22;13497;48.322;16.204;2023-04-25T04:17:14;8.40;99.90
25640;DHT22;13497;48.322;16.204;2023-04-25T04:19:40;8.50;99.90
25640;DHT22;13497;48.322;16.204;2023-04-25T04:22:06;8.50;99.90
25640;DHT22;13497;48.322;16.204;2023-04-25T04:24:31;8.50;99.90
25640;DHT22;13497;48.322;16.204;2023-04-25T04:26:58;8.50;99.90
25640;DHT22;13497;48.322;16.204;2023-04-25T04:29:25;8.40;99.90
25640;DHT22;13497;48.322;16.204;2023-04-25T04:31:51;8.30;99.90
25640;DHT22;13497;48.322;16.204;2023-04-25T04:34:18;8.20;99.90
25640;DHT22;13497;48.322;16.204;2023-04-25T04:36:44;8.20;99.90
25640;DHT22;13497;48.322;16.204;2023-04-25T04:39:11;8.20;99.90
25640;DHT22;13497;48.322;16.204;2023-04-25T04:41:37;8.10;99.90
25640;DHT22;13497;48.322;16.204;2023-04-25T04:44:02;8.20;99.90
25640;DHT22;13497;48.322;16.204;2023-04-25T04:46:28;8.20;99.90
25640;DHT22;13497;48.322;16.204;2023-04-25T04:48:53;8.20;99.90
25640;DHT22;13497;48.322;16.204;2023-04-25T04:51:19;8.30;99.90
25640;DHT22;13497;48.322;16.204;2023-04-25T04:53:46;8.30;99.90
25640;DHT22;13497;48.322;16.204;2023-04-25T04:56:11;8.30;99.90
25640;DHT22;13497;48.322;16.204;2023-04-25T04:58:37;8.30;99.90
25640;DHT22;13497;48.322;16.204;2023-04-25T05:01:02;8.30;99.90
25640;DHT22;13497;48.322;16.204;2023-04-25T05:03:28;8.40;99.90
25640;DHT22;13497;48.322;16.204;2023-04-25T05:05:54;8.40;99.90
25640;DHT22;13497;48.322;16.204;2023-04-25T05:08:19;8.40;99.90
25640;DHT22;13497;48.322;16.204;2023-04-25T05:10:45;8.40;99.90
25640;DHT22;13497;48.322;16.204;2023-04-25T05:13:10;8.40;99.90
25640;DHT22;13497;48.322;16.204;2023-04-25T05:15:36;8.50;99.90
25640;DHT22;13497;48.322;16.204;2023-04-25T05:18:01;8.60;99.90
25640;DHT22;13497;48.322;16.204;2023-04-25T05:20:27;8.90;99.90
25640;DHT22;13497;48.322;16.204;2023-04-25T05:22:52;9.80;99.90
25640;DHT22;13497;48.322;16.204;2023-04-25T05:25:18;10.90;99.90
25640;DHT22;13497;48.322;16.204;2023-04-25T05:27:43;11.90;99.90
25640;DHT22;13497;48.322;16.204;2023-04-25T05:30:09;13.10;99.90
25640;DHT22;13497;48.322;16.204;2023-04-25T05:32:35;14.00;99.90
25640;DHT22;13497;48.322;16.204;2023-04-25T05:35:01;14.90;99.90
25640;DHT22;13497;48.322;16.204;2023-04-25T05:37:28;15.60;99.90
25640;DHT22;13497;48.322;16.204;2023-04-25T05:39:55;15.90;99.90
25640;DHT22;13497;48.322;16.204;2023-04-25T05:42:21;15.60;99.90
25640;DHT22;13497;48.322;16.204;2023-04-25T05:44:46;16.10;99.60
25640;DHT22;13497;48.322;16.204;2023-04-25T05:47:12;16.10;99.40
25640;DHT22;13497;48.322;16.204;2023-04-25T05:49:37;15.80;99.10
25640;DHT22;13497;48.322;16.204;2023-04-25T05:52:03;15.20;99.70
25640;DHT22;13497;48.322;16.204;2023-04-25T05:54:28;15.30;99.50
25640;DHT22;13497;48.322;16.204;2023-04-25T05:56:55;15.50;99.50
25640;DHT22;13497;48.322;16.204;2023-04-25T05:59:21;15.60;99.20
25640;DHT22;13497;48.322;16.204;2023-04-25T06:01:46;15.60;99.20
25640;DHT22;13497;48.322;16.204;2023-04-25T06:04:12;15.40;99.60
25640;DHT22;13497;48.322;16.204;2023-04-25T06:06:37;15.20;99.90
25640;DHT22;13497;48.322;16.204;2023-04-25T06:09:03;15.30;99.90
25640;DHT22;13497;48.322;16.204;2023-04-25T06:11:29;15.50;99.80
25640;DHT22;13497;48.322;16.204;2023-04-25T06:13:55;15.50;99.50
25640;DHT22;13497;48.322;16.204;2023-04-25T06:16:20;15.70;99.40
25640;DHT22;13497;48.322;16.204;2023-04-25T06:18:46;16.00;99.30
25640;DHT22;13497;48.322;16.204;2023-04-25T06:21:11;16.00;99.40
25640;DHT22;13497;48.322;16.204;2023-04-25T06:23:37;15.30;99.60
25640;DHT22;13497;48.322;16.204;2023-04-25T06:26:02;13.90;99.90
25640;DHT22;13497;48.322;16.204;2023-04-25T06:28:28;13.10;99.90
25640;DHT22;13497;48.322;16.204;2023-04-25T06:30:54;12.70;99.90
25640;DHT22;13497;48.322;16.204;2023-04-25T06:33:19;12.60;99.90
25640;DHT22;13497;48.322;16.204;2023-04-25T06:35:46;12.30;99.90
25640;DHT22;13497;48.322;16.204;2023-04-25T06:38:12;12.30;99.90
25640;DHT22;13497;48.322;16.204;2023-04-25T06:40:37;12.30;99.90
25640;DHT22;13497;48.322;16.204;2023-04-25T06:43:03;12.20;99.90
25640;DHT22;13497;48.322;16.204;2023-04-25T06:45:29;12.20;99.90
25640;DHT22;13497;48.322;16.204;2023-04-25T06:47:54;12.20;99.90
25640;DHT22;13497;48.322;16.204;2023-04-25T06:50:20;12.30;99.90
25640;DHT22;13497;48.322;16.204;2023-04-25T06:52:45;12.30;99.90
25640;DHT22;13497;48.322;16.204;2023-04-25T06:55:11;12.30;99.90
25640;DHT22;13497;48.322;16.204;2023-04-25T06:57:36;12.30;99.90
25640;DHT22;13497;48.322;16.204;2023-04-25T07:00:02;12.30;99.90
25640;DHT22;13497;48.322;16.204;2023-04-25T07:02:30;12.50;99.90
25640;DHT22;13497;48.322;16.204;2023-04-25T07:04:56;12.60;99.90
25640;DHT22;13497;48.322;16.204;2023-04-25T07:07:25;12.60;99.90
25640;DHT22;13497;48.322;16.204;2023-04-25T07:09:50;12.60;99.90
25640;DHT22;13497;48.322;16.204;2023-04-25T07:12:16;12.70;99.90
25640;DHT22;13497;48.322;16.204;2023-04-25T07:14:41;12.80;99.90
25640;DHT22;13497;48.322;16.204;2023-04-25T07:17:07;12.80;99.90
25640;DHT22;13497;48.322;16.204;2023-04-25T07:19:32;13.00;99.90
25640;DHT22;13497;48.322;16.204;2023-04-25T07:21:58;13.10;99.90
25640;DHT22;13497;48.322;16.204;2023-04-25T07:24:24;13.30;99.90
25640;DHT22;13497;48.322;16.204;2023-04-25T07:26:49;13.40;99.90
25640;DHT22;13497;48.322;16.204;2023-04-25T07:29:15;13.50;99.90
25640;DHT22;13497;48.322;16.204;2023-04-25T07:31:40;13.40;99.90
25640;DHT22;13497;48.322;16.204;2023-04-25T07:34:06;13.50;99.90
25640;DHT22;13497;48.322;16.204;2023-04-25T07:36:32;13.60;99.90
25640;DHT22;13497;48.322;16.204;2023-04-25T07:38:58;13.80;99.90
25640;DHT22;13497;48.322;16.204;2023-04-25T07:41:23;13.80;99.90
25640;DHT22;13497;48.322;16.204;2023-04-25T07:43:49;13.70;99.90
25640;DHT22;13497;48.322;16.204;2023-04-25T07:46:15;13.70;99.90
25640;DHT22;13497;48.322;16.204;2023-04-25T07:48:40;13.70;99.90
25640;DHT22;13497;48.322;16.204;2023-04-25T07:51:06;13.70;99.90
25640;DHT22;13497;48.322;16.204;2023-04-25T07:53:32;13.80;99.90
25640;DHT22;13497;48.322;16.204;2023-04-25T07:55:59;13.90;99.90
25640;DHT22;13497;48.322;16.204;2023-04-25T07:58:25;14.20;99.50
25640;DHT22;13497;48.322;16.204;2023-04-25T08:00:51;14.30;99.80
25640;DHT22;13497;48.322;16.204;2023-04-25T08:03:16;14.40;99.10
25640;DHT22;13497;48.322;16.204;2023-04-25T08:05:42;14.40;99.10
25640;DHT22;13497;48.322;16.204;2023-04-25T08:08:07;14.60;99.20
25640;DHT22;13497;48.322;16.204;2023-04-25T08:10:33;14.80;99.40
25640;DHT22;13497;48.322;16.204;2023-04-25T08:12:59;14.70;98.00
25640;DHT22;13497;48.322;16.204;2023-04-25T08:15:25;14.80;97.90
25640;DHT22;13497;48.322;16.204;2023-04-25T08:17:51;14.70;97.60
25640;DHT22;13497;48.322;16.204;2023-04-25T08:20:17;14.60;98.10
25640;DHT22;13497;48.322;16.204;2023-04-25T08:22:42;14.90;97.80
25640;DHT22;13497;48.322;16.204;2023-04-25T08:25:08;14.90;97.70
25640;DHT22;13497;48.322;16.204;2023-04-25T08:27:33;15.10;97.50
25640;DHT22;13497;48.322;16.204;2023-04-25T08:30:00;15.00;97.20
25640;DHT22;13497;48.322;16.204;2023-04-25T08:32:25;15.00;97.30
25640;DHT22;13497;48.322;16.204;2023-04-25T08:34:51;15.00;97.20
25640;DHT22;13497;48.322;16.204;2023-04-25T08:37:19;14.80;97.50
25640;DHT22;13497;48.322;16.204;2023-04-25T08:39:45;14.90;97.60
25640;DHT22;13497;48.322;16.204;2023-04-25T08:42:12;14.80;97.80
25640;DHT22;13497;48.322;16.204;2023-04-25T08:44:37;14.90;97.80
25640;DHT22;13497;48.322;16.204;2023-04-25T08:47:03;14.80;98.00
25640;DHT22;13497;48.322;16.204;2023-04-25T08:49:33;14.90;97.40
25640;DHT22;13497;48.322;16.204;2023-04-25T08:51:59;15.20;97.10
25640;DHT22;13497;48.322;16.204;2023-04-25T08:54:25;15.40;96.60
25640;DHT22;13497;48.322;16.204;2023-04-25T08:56:54;15.60;96.90
25640;DHT22;13497;48.322;16.204;2023-04-25T08:59:20;15.60;96.40
25640;DHT22;13497;48.322;16.204;2023-04-25T09:01:46;15.80;97.00
25640;DHT22;13497;48.322;16.204;2023-04-25T09:04:13;15.70;96.80
25640;DHT22;13497;48.322;16.204;2023-04-25T09:06:38;15.50;95.70
25640;DHT22;13497;48.322;16.204;2023-04-25T09:09:04;15.50;96.30
25640;DHT22;13497;48.322;16.204;2023-04-25T09:11:31;15.50;96.10
25640;DHT22;13497;48.322;16.204;2023-04-25T09:16:57;15.50;95.20
25640;DHT22;13497;48.322;16.204;2023-04-25T09:19:23;15.60;96.60
25640;DHT22;13497;48.322;16.204;2023-04-25T09:21:53;15.60;97.50
25640;DHT22;13497;48.322;16.204;2023-04-25T09:27:04;15.90;96.60
25640;DHT22;13497;48.322;16.204;2023-04-25T09:29:33;15.90;94.80
25640;DHT22;13497;48.322;16.204;2023-04-25T09:34:40;15.20;96.40
25640;DHT22;13497;48.322;16.204;2023-04-25T09:37:10;14.20;97.00
25640;DHT22;13497;48.322;16.204;2023-04-25T09:39:36;13.60;97.40
25640;DHT22;13497;48.322;16.204;2023-04-25T09:42:02;13.20;99.40
25640;DHT22;13497;48.322;16.204;2023-04-25T09:44:28;12.90;99.90
25640;DHT22;13497;48.322;16.204;2023-04-25T09:46:53;12.90;99.90
25640;DHT22;13497;48.322;16.204;2023-04-25T09:49:20;13.10;99.90
25640;DHT22;13497;48.322;16.204;2023-04-25T09:51:58;13.40;99.90
25640;DHT22;13497;48.322;16.204;2023-04-25T09:54:24;13.80;99.90
25640;DHT22;13497;48.322;16.204;2023-04-25T09:56:51;14.20;99.90
25640;DHT22;13497;48.322;16.204;2023-04-25T09:59:17;14.50;99.90
25640;DHT22;13497;48.322;16.204;2023-04-25T10:01:44;14.80;99.90
25640;DHT22;13497;48.322;16.204;2023-04-25T10:04:10;14.70;99.90
25640;DHT22;13497;48.322;16.204;2023-04-25T10:06:37;14.80;99.90
25640;DHT22;13497;48.322;16.204;2023-04-25T10:09:03;15.00;99.90
25640;DHT22;13497;48.322;16.204;2023-04-25T10:11:30;15.20;99.90
25640;DHT22;13497;48.322;16.204;2023-04-25T10:13:56;15.30;99.90
25640;DHT22;13497;48.322;16.204;2023-04-25T10:16:21;15.30;99.10
25640;DHT22;13497;48.322;16.204;2023-04-25T10:18:47;15.30;98.50
25640;DHT22;13497;48.322;16.204;2023-04-25T10:21:13;15.50;99.90
25640;DHT22;13497;48.322;16.204;2023-04-25T10:23:40;15.60;99.80
25640;DHT22;13497;48.322;16.204;2023-04-25T10:26:05;15.50;98.20
25640;DHT22;13497;48.322;16.204;2023-04-25T10:31:24;15.50;97.70
25640;DHT22;13497;48.322;16.204;2023-04-25T10:33:50;15.80;97.30
25640;DHT22;13497;48.322;16.204;2023-04-25T10:36:20;16.00;96.70
25640;DHT22;13497;48.322;16.204;2023-04-25T10:38:47;16.10;97.20
25640;DHT22;13497;48.322;16.204;2023-04-25T10:41:13;16.20;96.50
25640;DHT22;13497;48.322;16.204;2023-04-25T10:43:45;16.30;96.80
25640;DHT22;13497;48.322;16.204;2023-04-25T10:48:51;16.20;95.40
25640;DHT22;13497;48.322;16.204;2023-04-25T10:51:19;16.00;94.70
25640;DHT22;13497;48.322;16.204;2023-04-25T10:54:06;15.90;95.50
25640;DHT22;13497;48.322;16.204;2023-04-25T10:56:38;15.80;95.70
25640;DHT22;13497;48.322;16.204;2023-04-25T10:59:17;15.70;95.60
25640;DHT22;13497;48.322;16.204;2023-04-25T11:01:43;15.70;95.60
25640;DHT22;13497;48.322;16.204;2023-04-25T11:06:53;15.00;94.80
25640;DHT22;13497;48.322;16.204;2023-04-25T11:09:23;14.50;94.40
25640;DHT22;13497;48.322;16.204;2023-04-25T11:11:58;14.40;94.50
25640;DHT22;13497;48.322;16.204;2023-04-25T11:14:24;14.40;94.50
25640;DHT22;13497;48.322;16.204;2023-04-25T11:16:55;14.40;93.50
25640;DHT22;13497;48.322;16.204;2023-04-25T11:19:24;14.50;94.00
25640;DHT22;13497;48.322;16.204;2023-04-25T11:21:50;14.80;94.60
25640;DHT22;13497;48.322;16.204;2023-04-25T11:24:16;15.20;91.70
25640;DHT22;13497;48.322;16.204;2023-04-25T11:26:42;15.40;92.10
25640;DHT22;13497;48.322;16.204;2023-04-25T11:29:08;15.80;91.10
25640;DHT22;13497;48.322;16.204;2023-04-25T11:31:34;15.90;91.10
25640;DHT22;13497;48.322;16.204;2023-04-25T11:33:59;16.00;91.70
25640;DHT22;13497;48.322;16.204;2023-04-25T11:36:25;15.90;94.20
25640;DHT22;13497;48.322;16.204;2023-04-25T11:38:51;15.30;95.50
25640;DHT22;13497;48.322;16.204;2023-04-25T11:41:17;14.70;96.00
25640;DHT22;13497;48.322;16.204;2023-04-25T11:43:43;14.20;96.60
25640;DHT22;13497;48.322;16.204;2023-04-25T11:46:09;14.10;96.70
25640;DHT22;13497;48.322;16.204;2023-04-25T11:48:38;13.80;97.30
25640;DHT22;13497;48.322;16.204;2023-04-25T11:51:04;13.80;97.60
25640;DHT22;13497;48.322;16.204;2023-04-25T11:53:29;13.90;98.70
25640;DHT22;13497;48.322;16.204;2023-04-25T11:55:55;14.10;98.60
25640;DHT22;13497;48.322;16.204;2023-04-25T11:58:21;14.20;98.90
25640;DHT22;13497;48.322;16.204;2023-04-25T12:00:46;14.30;98.30
25640;DHT22;13497;48.322;16.204;2023-04-25T12:03:12;14.50;98.20
25640;DHT22;13497;48.322;16.204;2023-04-25T12:05:37;14.80;98.40
25640;DHT22;13497;48.322;16.204;2023-04-25T12:08:14;14.90;98.30
25640;DHT22;13497;48.322;16.204;2023-04-25T12:10:41;14.70;98.20
25640;DHT22;13497;48.322;16.204;2023-04-25T12:13:21;14.40;99.10
25640;DHT22;13497;48.322;16.204;2023-04-25T12:15:46;14.30;98.90
25640;DHT22;13497;48.322;16.204;2023-04-25T12:18:12;14.30;99.40
25640;DHT22;13497;48.322;16.204;2023-04-25T12:20:38;14.10;99.30
25640;DHT22;13497;48.322;16.204;2023-04-25T12:23:06;14.00;99.20
25640;DHT22;13497;48.322;16.204;2023-04-25T12:25:37;14.20;99.20
25640;DHT22;13497;48.322;16.204;2023-04-25T12:28:16;14.40;99.30
25640;DHT22;13497;48.322;16.204;2023-04-25T12:30:51;14.60;98.80
25640;DHT22;13497;48.322;16.204;2023-04-25T12:33:17;14.70;98.70
25640;DHT22;13497;48.322;16.204;2023-04-25T12:35:42;14.80;98.90
25640;DHT22;13497;48.322;16.204;2023-04-25T12:38:08;14.80;98.40
25640;DHT22;13497;48.322;16.204;2023-04-25T12:40:33;14.80;98.50
25640;DHT22;13497;48.322;16.204;2023-04-25T12:42:59;14.70;98.80
25640;DHT22;13497;48.322;16.204;2023-04-25T12:45:25;14.70;98.90
25640;DHT22;13497;48.322;16.204;2023-04-25T12:47:51;14.70;98.30
25640;DHT22;13497;48.322;16.204;2023-04-25T12:50:16;14.60;98.30
25640;DHT22;13497;48.322;16.204;2023-04-25T12:52:42;14.40;98.20
25640;DHT22;13497;48.322;16.204;2023-04-25T12:55:07;14.40;98.20
25640;DHT22;13497;48.322;16.204;2023-04-25T12:57:33;14.50;98.10
25640;DHT22;13497;48.322;16.204;2023-04-25T12:59:58;14.70;97.90
25640;DHT22;13497;48.322;16.204;2023-04-25T13:02:24;14.60;98.20
25640;DHT22;13497;48.322;16.204;2023-04-25T13:04:50;14.90;98.50
25640;DHT22;13497;48.322;16.204;2023-04-25T13:07:16;15.00;97.40
25640;DHT22;13497;48.322;16.204;2023-04-25T13:09:42;15.20;96.50
25640;DHT22;13497;48.322;16.204;2023-04-25T13:12:07;15.20;96.70
25640;DHT22;13497;48.322;16.204;2023-04-25T13:14:33;15.30;96.10
25640;DHT22;13497;48.322;16.204;2023-04-25T13:16:59;15.40;96.20
25640;DHT22;13497;48.322;16.204;2023-04-25T13:19:24;15.40;96.10
25640;DHT22;13497;48.322;16.204;2023-04-25T13:21:50;15.50;96.20
25640;DHT22;13497;48.322;16.204;2023-04-25T13:24:16;15.50;95.50
25640;DHT22;13497;48.322;16.204;2023-04-25T13:26:42;15.40;95.70
25640;DHT22;13497;48.322;16.204;2023-04-25T13:29:07;15.30;95.70
25640;DHT22;13497;48.322;16.204;2023-04-25T13:31:33;15.30;96.10
25640;DHT22;13497;48.322;16.204;2023-04-25T13:33:58;15.50;95.60
25640;DHT22;13497;48.322;16.204;2023-04-25T13:36:24;15.50;95.40
25640;DHT22;13497;48.322;16.204;2023-04-25T13:38:49;15.60;95.80
25640;DHT22;13497;48.322;16.204;2023-04-25T13:41:15;15.90;95.30
25640;DHT22;13497;48.322;16.204;2023-04-25T13:43:44;16.20;94.90
25640;DHT22;13497;48.322;16.204;2023-04-25T13:46:11;16.50;94.10
25640;DHT22;13497;48.322;16.204;2023-04-25T13:48:38;16.60;95.40
25640;DHT22;13497;48.322;16.204;2023-04-25T13:51:03;16.40;94.80
25640;DHT22;13497;48.322;16.204;2023-04-25T13:53:29;15.90;95.70
25640;DHT22;13497;48.322;16.204;2023-04-25T13:55:55;15.10;96.80
25640;DHT22;13497;48.322;16.204;2023-04-25T13:58:20;14.30;98.00
25640;DHT22;13497;48.322;16.204;2023-04-25T14:00:46;13.60;98.80
25640;DHT22;13497;48.322;16.204;2023-04-25T14:03:12;13.10;99.90
25640;DHT22;13497;48.322;16.204;2023-04-25T14:05:37;12.80;99.90
25640;DHT22;13497;48.322;16.204;2023-04-25T14:08:07;12.60;99.90
25640;DHT22;13497;48.322;16.204;2023-04-25T14:10:33;12.50;99.90
25640;DHT22;13497;48.322;16.204;2023-04-25T14:12:59;12.40;99.90
25640;DHT22;13497;48.322;16.204;2023-04-25T14:15:25;12.30;99.90
25640;DHT22;13497;48.322;16.204;2023-04-25T14:17:51;12.30;99.90
25640;DHT22;13497;48.322;16.204;2023-04-25T14:20:16;12.30;99.90
25640;DHT22;13497;48.322;16.204;2023-04-25T14:22:45;12.30;99.90
25640;DHT22;13497;48.322;16.204;2023-04-25T14:25:11;12.40;99.90
25640;DHT22;13497;48.322;16.204;2023-04-25T14:27:36;12.50;99.90
25640;DHT22;13497;48.322;16.204;2023-04-25T14:30:02;12.80;99.90
25640;DHT22;13497;48.322;16.204;2023-04-25T14:32:27;12.90;99.90
25640;DHT22;13497;48.322;16.204;2023-04-25T14:34:53;13.10;99.90
25640;DHT22;13497;48.322;16.204;2023-04-25T14:37:18;13.10;99.90
25640;DHT22;13497;48.322;16.204;2023-04-25T14:39:44;13.00;99.90
25640;DHT22;13497;48.322;16.204;2023-04-25T14:42:09;12.90;99.90
25640;DHT22;13497;48.322;16.204;2023-04-25T14:44:36;13.00;99.90
25640;DHT22;13497;48.322;16.204;2023-04-25T14:47:01;13.20;99.90
25640;DHT22;13497;48.322;16.204;2023-04-25T14:49:27;13.20;99.90
25640;DHT22;13497;48.322;16.204;2023-04-25T14:51:53;13.00;99.90
25640;DHT22;13497;48.322;16.204;2023-04-25T14:54:18;12.80;99.90
25640;DHT22;13497;48.322;16.204;2023-04-25T14:56:44;12.80;99.90
25640;DHT22;13497;48.322;16.204;2023-04-25T14:59:09;12.60;99.90
25640;DHT22;13497;48.322;16.204;2023-04-25T15:01:35;12.60;99.90
25640;DHT22;13497;48.322;16.204;2023-04-25T15:04:01;12.50;99.90
25640;DHT22;13497;48.322;16.204;2023-04-25T15:06:27;12.60;99.90
25640;DHT22;13497;48.322;16.204;2023-04-25T15:08:54;12.70;99.90
25640;DHT22;13497;48.322;16.204;2023-04-25T15:11:20;12.90;99.90
25640;DHT22;13497;48.322;16.204;2023-04-25T15:13:46;12.90;99.90
25640;DHT22;13497;48.322;16.204;2023-04-25T15:16:11;12.90;99.90
25640;DHT22;13497;48.322;16.204;2023-04-25T15:18:37;12.80;99.90
25640;DHT22;13497;48.322;16.204;2023-04-25T15:21:02;12.80;99.90
25640;DHT22;13497;48.322;16.204;2023-04-25T15:23:28;12.80;99.90
25640;DHT22;13497;48.322;16.204;2023-04-25T15:25:54;12.70;99.90
25640;DHT22;13497;48.322;16.204;2023-04-25T15:28:19;12.60;99.90
25640;DHT22;13497;48.322;16.204;2023-04-25T15:30:46;12.60;99.90